NSZ3753 LIBD-EKCH
Flight info
| Callsign | NSZ3753 |
|---|---|
| Flight time | N/A |
| Altitude | 36000 |
| Route | PISIP DCT KATTI DCT DARZA DCT DIPSA DCT VENEN DCT LALUK DCT NIKDA Q296 MONAK |
| Aircraft | B738/M-SDE2E3FGHIRWXY/LB1 |
Departure
| Time | 2026-04-27 18:54 |
|---|---|
| Airport | Bari Karol Wojtyła International Airport (LIBD) |
Arrival
| Time | N/A |
|---|---|
| Airport | Copenhagen Kastrup Airport (EKCH) |
| Time | Latitude | Longitude | Altitude | Speed | Heading |
|---|---|---|---|---|---|
| 2026-04-27 18:32 | 41.13515 | 16.76292 | 135 ft | 0 kts | 159° |
| 2026-04-27 18:45 | 41.13517 | 16.76291 | 135 ft | 3 kts | 160° |
| 2026-04-27 18:45 | 41.13542 | 16.76281 | 135 ft | 4 kts | 171° |
| 2026-04-27 18:45 | 41.13568 | 16.76279 | 135 ft | 4 kts | 196° |
| 2026-04-27 18:45 | 41.13586 | 16.76294 | 135 ft | 2 kts | 253° |
| 2026-04-27 18:46 | 41.13587 | 16.76297 | 135 ft | 1 kts | 254° |
| 2026-04-27 18:48 | 41.13587 | 16.76296 | 135 ft | 1 kts | 254° |
| 2026-04-27 18:49 | 41.13573 | 16.76234 | 135 ft | 10 kts | 251° |
| 2026-04-27 18:49 | 41.13552 | 16.76142 | 135 ft | 11 kts | 271° |
| 2026-04-27 18:49 | 41.13592 | 16.76074 | 135 ft | 8 kts | 321° |
| 2026-04-27 18:49 | 41.13633 | 16.76026 | 135 ft | 8 kts | 305° |
| 2026-04-27 18:50 | 41.13635 | 16.75958 | 135 ft | 7 kts | 255° |
| 2026-04-27 18:50 | 41.13617 | 16.75891 | 135 ft | 9 kts | 249° |
| 2026-04-27 18:50 | 41.13584 | 16.75776 | 137 ft | 16 kts | 249° |
| 2026-04-27 18:50 | 41.13543 | 16.75632 | 137 ft | 14 kts | 249° |
| 2026-04-27 18:51 | 41.13516 | 16.75537 | 140 ft | 10 kts | 249° |
| 2026-04-27 18:51 | 41.13492 | 16.75454 | 142 ft | 10 kts | 250° |
| 2026-04-27 18:51 | 41.13458 | 16.75332 | 141 ft | 18 kts | 249° |
| 2026-04-27 18:51 | 41.13414 | 16.75177 | 144 ft | 16 kts | 249° |
| 2026-04-27 18:52 | 41.13379 | 16.75053 | 147 ft | 14 kts | 249° |
| 2026-04-27 18:52 | 41.13345 | 16.74927 | 147 ft | 14 kts | 257° |
| 2026-04-27 18:52 | 41.13382 | 16.74799 | 145 ft | 17 kts | 302° |
| 2026-04-27 18:53 | 41.13484 | 16.74757 | 139 ft | 0 kts | 70° |
| 2026-04-27 18:53 | 41.13571 | 16.75066 | 136 ft | 72 kts | 69° |
| 2026-04-27 18:53 | 41.13828 | 16.75976 | 136 ft | 136 kts | 69° |
| 2026-04-27 18:53 | 41.14222 | 16.77382 | 231 ft | 179 kts | 70° |
| 2026-04-27 18:54 | 41.14637 | 16.78953 | 993 ft | 178 kts | 71° |
| 2026-04-27 18:54 | 41.15071 | 16.80464 | 1780 ft | 179 kts | 69° |
| 2026-04-27 18:54 | 41.15561 | 16.82117 | 2076 ft | 207 kts | 69° |
| 2026-04-27 18:54 | 41.16114 | 16.84001 | 2299 ft | 230 kts | 69° |
| 2026-04-27 18:55 | 41.16707 | 16.86033 | 2702 ft | 240 kts | 69° |
| 2026-04-27 18:55 | 41.17314 | 16.88118 | 3265 ft | 243 kts | 69° |
| 2026-04-27 18:55 | 41.17991 | 16.90182 | 3803 ft | 249 kts | 57° |
| 2026-04-27 18:55 | 41.19264 | 16.91766 | 4296 ft | 258 kts | 28° |
| 2026-04-27 18:56 | 41.21021 | 16.92394 | 4866 ft | 268 kts | 0° |
| 2026-04-27 18:56 | 41.22871 | 16.91990 | 5599 ft | 272 kts | 345° |
| 2026-04-27 18:56 | 41.24702 | 16.91291 | 6353 ft | 275 kts | 344° |
| 2026-04-27 18:56 | 41.26552 | 16.90579 | 7074 ft | 278 kts | 344° |
| 2026-04-27 18:57 | 41.28417 | 16.89878 | 7859 ft | 278 kts | 344° |
| 2026-04-27 18:57 | 41.30289 | 16.89185 | 8614 ft | 280 kts | 344° |
| 2026-04-27 18:57 | 41.32150 | 16.88499 | 9358 ft | 282 kts | 344° |
| 2026-04-27 18:57 | 41.34076 | 16.87792 | 10110 ft | 284 kts | 344° |
| 2026-04-27 18:58 | 41.35987 | 16.87091 | 10549 ft | 297 kts | 344° |
| 2026-04-27 18:58 | 41.37353 | 16.86521 | 10628 ft | 313 kts | 336° |
| 2026-04-27 18:58 | 41.39658 | 16.84011 | 10853 ft | 340 kts | 311° |
| 2026-04-27 18:58 | 41.41254 | 16.81567 | 11014 ft | 360 kts | 311° |
| 2026-04-27 18:59 | 41.42924 | 16.78975 | 11198 ft | 377 kts | 311° |
| 2026-04-27 18:59 | 41.44655 | 16.76302 | 11648 ft | 384 kts | 311° |
| 2026-04-27 18:59 | 41.46414 | 16.73608 | 12251 ft | 387 kts | 311° |
| 2026-04-27 18:59 | 41.48195 | 16.70898 | 12872 ft | 389 kts | 311° |
| 2026-04-27 19:00 | 41.49991 | 16.68172 | 13461 ft | 393 kts | 311° |
| 2026-04-27 19:00 | 41.54468 | 16.62132 | 14632 ft | 401 kts | 329° |
| 2026-04-27 19:00 | 41.64788 | 16.56561 | 16954 ft | 404 kts | 338° |
| 2026-04-27 19:00 | 41.75231 | 16.50500 | 18871 ft | 413 kts | 335° |
| 2026-04-27 19:01 | 41.85814 | 16.44133 | 20587 ft | 421 kts | 335° |
| 2026-04-27 19:01 | 41.96562 | 16.37698 | 22225 ft | 427 kts | 335° |
| 2026-04-27 19:01 | 42.07544 | 16.31111 | 23570 ft | 437 kts | 335° |
| 2026-04-27 19:01 | 42.18756 | 16.24357 | 24767 ft | 443 kts | 335° |
| 2026-04-27 19:02 | 42.30091 | 16.17501 | 25804 ft | 451 kts | 335° |
| 2026-04-27 19:02 | 42.41648 | 16.10482 | 26766 ft | 458 kts | 336° |
| 2026-04-27 19:02 | 42.53296 | 16.03666 | 28208 ft | 452 kts | 343° |
| 2026-04-27 19:02 | 42.65466 | 15.99761 | 29591 ft | 449 kts | 348° |
| 2026-04-27 19:03 | 42.77662 | 15.96008 | 30788 ft | 446 kts | 346° |
| 2026-04-27 19:03 | 42.89631 | 15.91981 | 31949 ft | 442 kts | 346° |
| 2026-04-27 19:03 | 43.01411 | 15.87989 | 32955 ft | 439 kts | 345° |
| 2026-04-27 19:03 | 43.09381 | 15.85300 | 33676 ft | 437 kts | 345° |
| 2026-04-27 19:04 | 43.24984 | 15.80019 | 34833 ft | 432 kts | 345° |
| 2026-04-27 19:04 | 43.36704 | 15.76029 | 35395 ft | 434 kts | 345° |
| 2026-04-27 19:04 | 43.48349 | 15.72051 | 36143 ft | 430 kts | 345° |
| 2026-04-27 19:05 | 43.71962 | 15.63932 | 36107 ft | 441 kts | 345° |
| 2026-04-27 19:05 | 43.95656 | 15.55723 | 36076 ft | 435 kts | 344° |
| 2026-04-27 19:06 | 44.18768 | 15.47649 | 36054 ft | 421 kts | 344° |
| 2026-04-27 19:06 | 44.41476 | 15.39648 | 36139 ft | 423 kts | 345° |
| 2026-04-27 19:07 | 44.64694 | 15.31404 | 36141 ft | 437 kts | 345° |
| 2026-04-27 19:07 | 44.88258 | 15.22969 | 36113 ft | 434 kts | 345° |
| 2026-04-27 19:08 | 45.11411 | 15.14609 | 36105 ft | 423 kts | 344° |